createdAt,value
2023-04-02T00:01:37.017Z,2.42
2023-04-02T00:04:23.041Z,2.75
2023-04-02T00:07:30.540Z,0.65
2023-04-02T00:10:02.715Z,1.10
2023-04-02T00:12:35.273Z,1.00
2023-04-02T00:15:13.308Z,1.42
2023-04-02T00:17:45.572Z,0.82
2023-04-02T00:20:20.281Z,2.30
2023-04-02T00:22:52.551Z,0.60
2023-04-02T00:25:28.692Z,2.05
2023-04-02T00:28:00.778Z,1.48
2023-04-02T00:30:32.885Z,1.08
2023-04-02T00:33:05.007Z,1.25
2023-04-02T00:35:39.218Z,1.35
2023-04-02T00:38:25.917Z,1.08
2023-04-02T00:41:02.175Z,1.40
2023-04-02T00:43:39.379Z,0.73
2023-04-02T00:46:16.706Z,2.30
2023-04-02T00:49:14.685Z,3.25
2023-04-02T00:51:58.132Z,1.42
2023-04-02T00:54:34.333Z,3.30
2023-04-02T00:57:18.635Z,1.80
2023-04-02T01:00:13.975Z,1.17
2023-04-02T01:03:16.490Z,4.80
2023-04-02T01:05:52.063Z,1.20
2023-04-02T01:08:58.672Z,3.50
2023-04-02T01:11:55.070Z,1.50
2023-04-02T01:14:37.757Z,4.32
2023-04-02T01:17:43.737Z,1.67
2023-04-02T01:20:38.021Z,2.65
2023-04-02T01:23:10.093Z,1.25
2023-04-02T01:25:51.065Z,0.73
2023-04-02T01:28:46.691Z,5.05
2023-04-02T01:31:19.428Z,0.90
2023-04-02T01:33:51.627Z,1.13
2023-04-02T01:36:48.674Z,2.75
2023-04-02T01:39:46.541Z,1.15
2023-04-02T01:42:27.188Z,0.82
2023-04-02T01:45:13.934Z,1.75
2023-04-02T01:47:46.533Z,4.93
2023-04-02T01:50:37.589Z,2.58
2023-04-02T01:53:13.534Z,3.15
2023-04-02T01:55:48.928Z,2.63
2023-04-02T01:58:27.755Z,7.60
2023-04-02T02:01:14.847Z,1.90
2023-04-02T02:03:49.766Z,1.80
2023-04-02T02:06:23.574Z,2.40
2023-04-02T02:09:01.520Z,3.22
2023-04-02T02:11:36.610Z,1.75
2023-04-02T02:14:15.713Z,2.65
2023-04-02T02:16:48.776Z,2.90
2023-04-02T02:19:28.852Z,1.13
2023-04-02T02:22:28.268Z,1.23
2023-04-02T02:25:05.477Z,1.02
2023-04-02T02:27:52.851Z,1.55
2023-04-02T02:30:51.073Z,1.38
2023-04-02T02:33:31.390Z,2.67
2023-04-02T02:36:16.387Z,1.20
2023-04-02T02:38:54.770Z,0.80
2023-04-02T02:41:50.415Z,2.35
2023-04-02T02:44:27.181Z,1.77
2023-04-02T02:47:04.596Z,0.90
2023-04-02T02:50:05.937Z,0.90
2023-04-02T02:52:40.205Z,2.28
2023-04-02T02:55:19.995Z,5.72
2023-04-02T02:58:12.036Z,1.42
2023-04-02T03:00:51.740Z,0.90
2023-04-02T03:03:28.505Z,2.35
2023-04-02T03:06:10.626Z,1.20
2023-04-02T03:09:13.077Z,2.47
2023-04-02T03:11:58.293Z,2.65
2023-04-02T03:14:46.683Z,1.35
2023-04-02T03:17:41.910Z,2.83
2023-04-02T03:20:23.639Z,4.22
2023-04-02T03:23:25.167Z,3.30
2023-04-02T03:26:08.697Z,0.63
2023-04-02T03:28:47.629Z,3.10
2023-04-02T03:31:36.794Z,0.77
2023-04-02T03:34:18.738Z,4.00
2023-04-02T03:37:08.116Z,2.90
2023-04-02T03:39:47.790Z,1.58
2023-04-02T03:42:25.360Z,1.10
2023-04-02T03:45:05.888Z,3.13
2023-04-02T03:48:00.057Z,1.23
2023-04-02T03:50:41.048Z,0.70
2023-04-02T03:53:13.761Z,2.20
2023-04-02T03:55:46.568Z,1.87
2023-04-02T03:58:41.254Z,1.33
2023-04-02T04:01:35.493Z,2.75
2023-04-02T04:04:16.768Z,5.10
2023-04-02T04:06:52.568Z,3.63
2023-04-02T04:09:30.895Z,1.38
2023-04-02T04:12:19.770Z,0.80
2023-04-02T04:15:06.566Z,0.82
2023-04-02T04:18:02.471Z,1.77
2023-04-02T04:20:49.739Z,1.05
2023-04-02T04:23:31.701Z,3.60
2023-04-02T04:26:19.770Z,2.78
2023-04-02T04:29:12.608Z,1.77
2023-04-02T04:31:49.871Z,1.73
2023-04-02T04:34:32.408Z,1.35
2023-04-02T04:37:08.047Z,2.08
2023-04-02T04:39:49.792Z,1.58
2023-04-02T04:42:31.366Z,1.17
2023-04-02T04:45:06.630Z,4.97
2023-04-02T04:47:44.398Z,4.40
2023-04-02T04:50:35.100Z,1.23
2023-04-02T04:53:14.268Z,2.17
2023-04-02T04:55:48.975Z,1.95
2023-04-02T04:58:23.958Z,3.38
2023-04-02T05:01:03.812Z,2.33
2023-04-02T05:03:51.343Z,1.30
2023-04-02T05:06:49.580Z,1.27
2023-04-02T05:09:43.147Z,5.10
2023-04-02T05:12:40.581Z,1.63
2023-04-02T05:15:48.833Z,2.35
2023-04-02T05:18:30.462Z,1.15
2023-04-02T05:21:27.612Z,0.93
2023-04-02T05:24:29.507Z,1.50
2023-04-02T05:27:24.101Z,1.60
2023-04-02T05:30:09.869Z,0.93
2023-04-02T05:32:50.585Z,1.73
2023-04-02T05:35:43.073Z,1.52
2023-04-02T05:38:22.755Z,2.65
2023-04-02T05:41:05.182Z,2.10
2023-04-02T05:43:39.596Z,0.65
2023-04-02T05:46:28.148Z,1.85
2023-04-02T05:49:06.738Z,4.13
2023-04-02T05:51:44.059Z,1.02
2023-04-02T05:54:25.220Z,2.65
2023-04-02T05:57:08.033Z,3.13
2023-04-02T05:59:48.674Z,2.35
2023-04-02T06:02:41.761Z,3.45
2023-04-02T06:05:34.582Z,1.83
2023-04-02T06:08:21.124Z,2.63
2023-04-02T06:11:02.041Z,3.58
2023-04-02T06:13:35.196Z,4.35
2023-04-02T06:21:24.024Z,10.68
2023-04-02T06:24:05.570Z,1.55
2023-04-02T06:27:09.592Z,3.10
2023-04-02T06:29:45.333Z,2.72
2023-04-02T06:32:37.103Z,1.98
2023-04-02T06:35:38.437Z,1.45
2023-04-02T06:38:36.610Z,3.67
2023-04-02T06:41:33.138Z,2.15
2023-04-02T06:44:34.256Z,5.32
2023-04-02T06:47:31.043Z,0.85
2023-04-02T06:50:43.343Z,1.45
2023-04-02T06:56:30.064Z,2.83
2023-04-02T06:59:07.885Z,1.88
2023-04-02T07:03:10.807Z,3.90
2023-04-02T07:06:32.002Z,8.95
2023-04-02T07:10:12.260Z,7.13
2023-04-02T07:12:48.674Z,14.43
2023-04-02T07:15:21.708Z,11.23
2023-04-02T07:17:59.443Z,9.68
2023-04-02T07:20:37.987Z,14.93
2023-04-02T07:23:16.948Z,8.88
2023-04-02T07:25:51.023Z,6.18
2023-04-02T07:30:57.017Z,4.40
2023-04-02T07:33:33.680Z,9.88
2023-04-02T07:36:06.707Z,4.43
2023-04-02T07:38:39.222Z,4.78
2023-04-02T07:41:13.396Z,11.05
2023-04-02T07:44:40.809Z,3.70
2023-04-02T07:47:34.593Z,3.17
2023-04-02T07:50:15.858Z,2.65
2023-04-02T07:52:48.764Z,2.60
2023-04-02T07:55:22.452Z,4.13
2023-04-02T08:00:39.445Z,4.53
2023-04-02T08:03:21.816Z,4.13
2023-04-02T08:05:59.608Z,6.35
2023-04-02T08:08:31.974Z,4.55
2023-04-02T08:11:11.724Z,3.60
2023-04-02T08:14:12.504Z,4.47
2023-04-02T08:16:54.043Z,4.38
2023-04-02T08:19:27.256Z,2.58
2023-04-02T08:21:59.505Z,3.10
2023-04-02T08:24:37.833Z,2.63
2023-04-02T08:27:23.942Z,6.72
2023-04-02T08:29:59.134Z,2.15
2023-04-02T08:32:31.690Z,2.23
2023-04-02T08:35:08.921Z,2.53
2023-04-02T08:37:42.511Z,2.97
2023-04-02T08:43:37.879Z,1.10
2023-04-02T08:46:28.694Z,4.63
2023-04-02T08:49:03.885Z,1.77
2023-04-02T08:51:57.372Z,3.58
2023-04-02T08:54:40.919Z,1.27
2023-04-02T08:57:37.584Z,3.88
2023-04-02T09:00:34.133Z,3.15
2023-04-02T09:03:11.297Z,4.38
2023-04-02T09:05:52.807Z,1.23
2023-04-02T09:08:27.928Z,2.13
2023-04-02T09:11:23.542Z,5.88
2023-04-02T09:13:58.742Z,3.35
2023-04-02T09:16:55.404Z,2.50
2023-04-02T09:19:36.875Z,2.80
2023-04-02T09:22:24.291Z,3.42
2023-04-02T09:24:59.661Z,4.07
2023-04-02T09:27:37.019Z,2.65
2023-04-02T09:30:15.560Z,2.15
2023-04-02T09:32:52.026Z,1.83
2023-04-02T09:35:30.139Z,2.58
2023-04-02T09:38:35.637Z,1.98
2023-04-02T09:41:20.219Z,1.55
2023-04-02T09:44:13.912Z,2.10
2023-04-02T09:47:29.517Z,2.67
2023-04-02T09:50:24.981Z,2.83
2023-04-02T09:52:58.100Z,4.47
2023-04-02T09:55:31.680Z,4.10
2023-04-02T09:58:22.954Z,2.33
2023-04-02T10:00:56.184Z,2.10
2023-04-02T10:03:37.433Z,3.65
2023-04-02T10:06:15.481Z,3.88
2023-04-02T10:08:48.186Z,4.95
2023-04-02T10:11:36.399Z,3.30
2023-04-02T10:14:32.375Z,2.15
2023-04-02T10:17:29.972Z,2.20
2023-04-02T10:20:50.434Z,2.65
2023-04-02T10:23:48.694Z,3.55
2023-04-02T10:26:48.476Z,4.18
2023-04-02T10:29:53.892Z,1.90
2023-04-02T10:32:57.753Z,3.00
2023-04-02T10:35:48.198Z,4.03
2023-04-02T10:38:43.245Z,2.67
2023-04-02T10:41:34.346Z,1.83
2023-04-02T10:44:20.482Z,2.05
2023-04-02T10:47:40.807Z,1.67
2023-04-02T10:50:32.726Z,1.60
2023-04-02T10:53:23.343Z,1.00
2023-04-02T10:56:09.080Z,4.78
2023-04-02T10:59:03.674Z,2.25
2023-04-02T11:01:41.230Z,3.42
2023-04-02T11:04:25.416Z,3.20
2023-04-02T11:09:55.040Z,3.00
2023-04-02T11:12:52.012Z,2.15
2023-04-02T11:15:24.890Z,1.92
2023-04-02T11:17:58.238Z,1.90
2023-04-02T11:21:04.736Z,2.13
2023-04-02T11:23:54.015Z,1.33
2023-04-02T11:26:31.737Z,0.82
2023-04-02T11:29:29.647Z,2.33
2023-04-02T11:32:20.970Z,2.30
2023-04-02T11:35:06.755Z,1.33
2023-04-02T11:37:44.868Z,1.70
2023-04-02T11:40:17.160Z,2.33
2023-04-02T11:42:52.035Z,2.20
2023-04-02T11:45:27.143Z,1.15
2023-04-02T11:48:02.655Z,1.35
2023-04-02T11:50:46.278Z,1.50
2023-04-02T11:53:35.954Z,1.42
2023-04-02T11:56:22.062Z,1.38
2023-04-02T11:59:21.544Z,2.50
2023-04-02T12:02:23.590Z,11.25
2023-04-02T12:05:07.781Z,2.15
2023-04-02T12:07:53.869Z,2.47
2023-04-02T12:10:51.281Z,1.13
2023-04-02T12:13:41.964Z,2.90
2023-04-02T12:16:14.885Z,3.90
2023-04-02T12:18:54.024Z,1.10
2023-04-02T12:21:29.583Z,1.77
2023-04-02T12:24:04.019Z,2.17
2023-04-02T12:26:37.937Z,1.90
2023-04-02T12:29:29.242Z,1.92
2023-04-02T12:32:04.090Z,1.88
2023-04-02T12:34:36.693Z,2.88
2023-04-02T12:37:24.158Z,4.20
2023-04-02T12:39:59.917Z,2.45
2023-04-02T12:42:37.576Z,2.92
2023-04-02T12:45:33.574Z,2.92
2023-04-02T12:48:07.149Z,5.63
2023-04-02T12:53:32.289Z,3.13
2023-04-02T12:56:05.918Z,5.03
2023-04-02T13:01:29.348Z,2.38
2023-04-02T13:04:07.553Z,3.10
2023-04-02T13:06:43.261Z,4.05
2023-04-02T13:09:41.926Z,2.97
2023-04-02T13:12:28.019Z,2.00
2023-04-02T13:15:03.470Z,2.00
2023-04-02T13:17:43.950Z,3.63
2023-04-02T13:20:37.400Z,2.65
2023-04-02T13:23:31.155Z,2.08
2023-04-02T13:26:31.061Z,3.55
2023-04-02T13:29:11.063Z,3.10
2023-04-02T13:31:43.499Z,2.05
2023-04-02T13:34:15.964Z,1.92
2023-04-02T13:36:48.600Z,1.92
2023-04-02T13:39:21.921Z,3.33
2023-04-02T13:41:59.484Z,2.53
2023-04-02T13:44:34.228Z,6.85
2023-04-02T13:47:06.606Z,6.28
2023-04-02T13:49:38.725Z,4.28
2023-04-02T13:52:15.215Z,5.68
2023-04-02T13:54:55.002Z,3.10
2023-04-02T13:57:27.226Z,2.45
2023-04-02T13:59:59.564Z,3.90
2023-04-02T14:02:32.544Z,3.33
2023-04-02T14:05:27.744Z,4.10
2023-04-02T14:08:20.998Z,4.03
2023-04-02T14:11:21.868Z,3.20
2023-04-02T14:14:13.102Z,4.00
2023-04-02T14:16:58.288Z,2.85
2023-04-02T14:19:53.749Z,2.55
2023-04-02T14:23:09.475Z,1.92
2023-04-02T14:25:48.581Z,2.03
2023-04-02T14:28:43.560Z,2.78
2023-04-02T14:31:25.029Z,5.32
2023-04-02T14:34:19.548Z,3.10
2023-04-02T14:37:13.787Z,4.88
2023-04-02T14:40:07.785Z,5.50
2023-04-02T14:43:02.080Z,4.28
2023-04-02T14:45:46.787Z,3.20
2023-04-02T14:48:43.969Z,1.95
2023-04-02T14:51:29.408Z,1.42
2023-04-02T14:54:15.740Z,0.80
2023-04-02T14:56:57.876Z,1.40
2023-04-02T14:59:39.986Z,1.75
2023-04-02T15:02:23.358Z,1.50
2023-04-02T15:05:03.721Z,4.00
2023-04-02T15:07:50.671Z,35.55
2023-04-02T15:10:31.482Z,66.05
2023-04-02T15:13:17.666Z,8.57
2023-04-02T15:15:56.737Z,10.10
2023-04-02T15:18:29.187Z,8.38
2023-04-02T15:21:19.357Z,12.13
2023-04-02T15:24:14.137Z,2.50
2023-04-02T15:27:03.878Z,4.95
2023-04-02T15:29:56.724Z,1.63
2023-04-02T15:32:43.340Z,5.68
2023-04-02T15:35:34.173Z,1.20
2023-04-02T15:38:16.161Z,1.52
2023-04-02T15:41:23.419Z,5.38
2023-04-02T15:44:13.466Z,20.00
2023-04-02T15:47:07.807Z,9.10
2023-04-02T15:50:01.825Z,4.65
2023-04-02T15:52:44.510Z,4.53
2023-04-02T15:55:26.514Z,4.53
2023-04-02T15:58:23.515Z,13.77
2023-04-02T16:01:10.812Z,8.40
2023-04-02T16:04:23.464Z,3.53
2023-04-02T16:07:20.833Z,8.15
2023-04-02T16:10:11.044Z,14.27
2023-04-02T16:12:46.508Z,9.95
2023-04-02T16:15:27.310Z,4.40
2023-04-02T16:18:05.780Z,5.63
2023-04-02T16:20:43.724Z,6.00
2023-04-02T16:23:21.132Z,5.20
2023-04-02T16:26:17.565Z,5.57
2023-04-02T16:29:25.449Z,6.15
2023-04-02T16:32:20.176Z,10.50
2023-04-02T16:35:31.123Z,8.20
2023-04-02T16:38:24.258Z,6.55
2023-04-02T16:41:09.237Z,7.25
2023-04-02T16:44:05.661Z,7.30
2023-04-02T16:47:15.460Z,9.63
2023-04-02T16:49:59.904Z,8.35
2023-04-02T16:53:10.202Z,6.47
2023-04-02T16:56:07.356Z,8.93
2023-04-02T16:58:46.045Z,8.65
2023-04-02T17:01:46.697Z,8.32
2023-04-02T17:04:46.946Z,9.75
2023-04-02T17:07:40.852Z,9.63
2023-04-02T17:10:49.832Z,13.02
2023-04-02T17:13:42.243Z,8.88
2023-04-02T17:16:25.126Z,14.00
2023-04-02T17:18:58.497Z,13.30
2023-04-02T17:21:32.164Z,13.52
2023-04-02T17:24:23.418Z,10.30
2023-04-02T17:27:03.962Z,9.45
2023-04-02T17:29:39.868Z,10.38
2023-04-02T17:32:24.110Z,10.43
2023-04-02T17:34:57.860Z,9.43
2023-04-02T17:40:31.307Z,10.65
2023-04-02T17:43:19.368Z,11.00
2023-04-02T17:45:53.418Z,10.35
2023-04-02T17:49:00.528Z,9.90
2023-04-02T17:51:44.653Z,7.55
2023-04-02T17:54:33.671Z,9.73
2023-04-02T17:57:32.599Z,9.93
2023-04-02T18:00:26.973Z,9.65
2023-04-02T18:03:37.714Z,8.02
2023-04-02T18:06:16.389Z,8.35
2023-04-02T18:09:07.376Z,8.65
2023-04-02T18:11:45.758Z,10.70
2023-04-02T18:14:42.931Z,10.70
2023-04-02T18:17:33.434Z,10.57
2023-04-02T18:20:16.370Z,11.70
2023-04-02T18:23:07.240Z,10.88
2023-04-02T18:26:07.436Z,13.77
2023-04-02T18:29:04.077Z,13.68
2023-04-02T18:31:41.893Z,14.73
2023-04-02T18:34:35.608Z,15.32
2023-04-02T18:37:46.052Z,14.25
2023-04-02T18:40:32.882Z,16.08
2023-04-02T18:43:12.891Z,17.30
2023-04-02T18:46:13.220Z,15.00
2023-04-02T18:48:57.992Z,18.55
2023-04-02T18:51:35.758Z,13.50
2023-04-02T18:54:38.296Z,13.52
2023-04-02T18:57:27.506Z,15.10
2023-04-02T19:00:15.080Z,19.00
2023-04-02T19:02:57.041Z,15.20
2023-04-02T19:05:35.924Z,15.70
2023-04-02T19:08:24.406Z,18.10
2023-04-02T19:11:07.515Z,20.85
2023-04-02T19:13:45.423Z,16.80
2023-04-02T19:16:37.442Z,18.92
2023-04-02T19:19:21.555Z,20.65
2023-04-02T19:22:17.115Z,17.63
2023-04-02T19:25:16.104Z,20.23
2023-04-02T19:27:50.471Z,19.35
2023-04-02T19:30:38.155Z,19.48
2023-04-02T19:33:48.139Z,18.67
2023-04-02T19:36:45.362Z,18.38
2023-04-02T19:39:34.453Z,18.02
2023-04-02T19:42:16.443Z,20.15
2023-04-02T19:44:52.012Z,19.88
2023-04-02T19:47:26.762Z,17.35
2023-04-02T19:49:59.148Z,16.83
2023-04-02T19:52:31.272Z,18.40
2023-04-02T19:55:03.368Z,16.33
2023-04-02T19:57:35.521Z,16.65
2023-04-02T20:00:09.439Z,17.13
2023-04-02T20:02:44.297Z,13.80
2023-04-02T20:05:16.445Z,14.13
2023-04-02T20:07:48.570Z,15.88
2023-04-02T20:10:23.034Z,18.83
2023-04-02T20:12:55.428Z,15.10
2023-04-02T20:15:28.012Z,15.93
2023-04-02T20:18:00.237Z,16.85
2023-04-02T20:20:32.502Z,14.30
2023-04-02T20:23:04.817Z,15.10
2023-04-02T20:25:36.906Z,13.20
2023-04-02T20:28:10.072Z,16.77
2023-04-02T20:30:42.409Z,13.45
2023-04-02T20:33:14.763Z,16.10
2023-04-02T20:35:47.578Z,16.92
2023-04-02T20:38:21.650Z,14.93
2023-04-02T20:40:57.173Z,15.32
2023-04-02T20:43:29.611Z,14.73
2023-04-02T20:46:05.750Z,15.43
2023-04-02T20:48:39.255Z,19.67
2023-04-02T20:51:14.242Z,18.30
2023-04-02T20:53:46.778Z,16.90
2023-04-02T20:56:20.628Z,17.77
2023-04-02T21:01:27.007Z,23.17
2023-04-02T21:04:01.160Z,22.23
2023-04-02T21:06:36.572Z,25.05
2023-04-02T21:09:15.553Z,22.33
2023-04-02T21:11:47.603Z,25.70
2023-04-02T21:14:20.298Z,26.25
2023-04-02T21:16:52.401Z,25.10
2023-04-02T21:19:24.673Z,27.38
2023-04-02T21:21:56.767Z,26.55
2023-04-02T21:24:29.362Z,26.67
2023-04-02T21:27:01.642Z,30.48
2023-04-02T21:29:33.769Z,29.05
2023-04-02T21:32:18.035Z,28.88
2023-04-02T21:34:54.286Z,29.00
2023-04-02T21:37:26.715Z,29.85
2023-04-02T21:39:58.893Z,29.35
2023-04-02T21:42:31.478Z,26.75
2023-04-02T21:45:03.965Z,30.37
2023-04-02T21:47:36.222Z,30.90
2023-04-02T21:50:09.210Z,28.45
2023-04-02T21:52:41.626Z,27.40
2023-04-02T21:55:13.853Z,35.25
2023-04-02T21:57:46.000Z,29.15
2023-04-02T22:00:18.359Z,26.92
2023-04-02T22:02:51.090Z,29.10
2023-04-02T22:05:23.852Z,33.42
2023-04-02T22:07:56.000Z,31.85
2023-04-02T22:10:28.063Z,33.30
2023-04-02T22:13:00.159Z,32.95
2023-04-02T22:15:34.024Z,30.50
2023-04-02T22:18:06.606Z,28.95
2023-04-02T22:20:39.365Z,32.67
2023-04-02T22:23:11.510Z,28.13
2023-04-02T22:25:43.650Z,29.88
2023-04-02T22:28:15.953Z,32.00
2023-04-02T22:30:49.049Z,28.95
2023-04-02T22:33:21.480Z,33.28
2023-04-02T22:35:53.689Z,31.23
2023-04-02T22:38:26.536Z,31.08
2023-04-02T22:41:10.926Z,30.03
2023-04-02T22:43:45.514Z,27.33
2023-04-02T22:46:18.923Z,32.20
2023-04-02T22:48:51.494Z,28.42
2023-04-02T22:51:25.626Z,33.63
2023-04-02T22:53:58.224Z,30.08
2023-04-02T22:56:32.411Z,28.50
2023-04-02T22:59:04.885Z,32.08
2023-04-02T23:01:37.265Z,35.25
2023-04-02T23:04:09.416Z,33.15
2023-04-02T23:06:41.564Z,31.38
2023-04-02T23:09:13.718Z,31.30
2023-04-02T23:11:45.985Z,31.35
2023-04-02T23:14:18.074Z,32.17
2023-04-02T23:16:50.172Z,29.08
2023-04-02T23:19:22.378Z,29.45
2023-04-02T23:21:54.425Z,30.55
2023-04-02T23:24:26.485Z,27.10
2023-04-02T23:26:58.544Z,32.38
2023-04-02T23:29:31.650Z,54.95
2023-04-02T23:32:03.787Z,28.73
2023-04-02T23:34:36.193Z,26.45
2023-04-02T23:37:08.497Z,32.30
2023-04-02T23:39:41.004Z,30.48
2023-04-02T23:42:13.171Z,29.08
2023-04-02T23:44:46.058Z,33.47
2023-04-02T23:47:18.153Z,31.85
2023-04-02T23:49:50.289Z,30.58
2023-04-02T23:52:22.620Z,30.25
2023-04-02T23:54:54.721Z,32.42
2023-04-02T23:57:27.089Z,29.00
2023-04-02T23:59:59.262Z,31.25
